createdAt,value
2023-01-08T00:01:14.094Z,16.05
2023-01-08T00:03:41.319Z,16.15
2023-01-08T00:06:12.764Z,16.60
2023-01-08T00:08:39.909Z,17.10
2023-01-08T00:11:06.696Z,16.63
2023-01-08T00:13:33.403Z,16.85
2023-01-08T00:16:05.092Z,17.08
2023-01-08T00:18:31.873Z,16.80
2023-01-08T00:20:58.911Z,16.67
2023-01-08T00:23:25.595Z,16.10
2023-01-08T00:25:52.192Z,15.82
2023-01-08T00:28:20.978Z,15.63
2023-01-08T00:30:48.452Z,15.90
2023-01-08T00:33:15.723Z,15.95
2023-01-08T00:35:42.219Z,16.80
2023-01-08T00:38:08.794Z,16.45
2023-01-08T00:40:36.372Z,16.67
2023-01-08T00:43:03.742Z,16.80
2023-01-08T00:45:30.651Z,15.60
2023-01-08T00:47:57.403Z,16.75
2023-01-08T00:50:24.028Z,16.48
2023-01-08T00:52:50.573Z,17.02
2023-01-08T00:55:17.893Z,15.95
2023-01-08T00:57:44.637Z,17.38
2023-01-08T01:00:16.403Z,17.08
2023-01-08T01:02:43.897Z,16.77
2023-01-08T01:05:15.214Z,14.60
2023-01-08T01:07:42.807Z,18.08
2023-01-08T01:10:10.741Z,16.15
2023-01-08T01:12:38.903Z,15.05
2023-01-08T01:15:11.236Z,16.52
2023-01-08T01:17:43.137Z,16.75
2023-01-08T01:20:11.385Z,15.15
2023-01-08T01:22:39.110Z,16.23
2023-01-08T01:25:05.869Z,16.80
2023-01-08T01:27:32.453Z,17.35
2023-01-08T01:29:59.149Z,16.02
2023-01-08T01:32:25.730Z,15.73
2023-01-08T01:34:52.271Z,15.52
2023-01-08T01:37:18.960Z,16.45
2023-01-08T01:39:46.798Z,15.80
2023-01-08T01:42:36.364Z,16.33
2023-01-08T01:45:24.792Z,16.77
2023-01-08T01:48:05.884Z,16.73
2023-01-08T01:50:41.318Z,16.00
2023-01-08T01:53:13.330Z,17.27
2023-01-08T01:55:43.470Z,16.05
2023-01-08T01:58:21.502Z,17.40
2023-01-08T02:00:49.466Z,16.73
2023-01-08T02:03:16.840Z,16.65
2023-01-08T02:05:52.699Z,16.30
2023-01-08T02:08:33.379Z,16.52
2023-01-08T02:11:29.255Z,16.30
2023-01-08T02:14:11.806Z,16.55
2023-01-08T02:17:01.609Z,17.40
2023-01-08T02:20:00.044Z,17.00
2023-01-08T02:22:38.662Z,18.35
2023-01-08T02:25:29.589Z,16.23
2023-01-08T02:28:00.366Z,17.30
2023-01-08T02:30:27.370Z,17.77
2023-01-08T02:32:54.062Z,17.85
2023-01-08T02:35:20.620Z,18.35
2023-01-08T02:37:47.156Z,16.70
2023-01-08T02:40:24.485Z,16.50
2023-01-08T02:43:11.935Z,18.45
2023-01-08T02:45:52.344Z,17.85
2023-01-08T02:48:31.096Z,18.25
2023-01-08T02:51:13.933Z,17.73
2023-01-08T02:53:44.697Z,17.90
2023-01-08T02:56:15.514Z,17.77
2023-01-08T02:58:43.176Z,17.75
2023-01-08T03:01:11.963Z,17.33
2023-01-08T03:03:41.804Z,16.70
2023-01-08T03:06:12.617Z,18.75
2023-01-08T03:08:41.718Z,18.42
2023-01-08T03:11:12.254Z,18.80
2023-01-08T03:13:45.619Z,17.75
2023-01-08T03:16:17.678Z,17.35
2023-01-08T03:19:04.790Z,17.00
2023-01-08T03:21:32.230Z,17.67
2023-01-08T03:23:59.421Z,17.70
2023-01-08T03:26:27.636Z,16.27
2023-01-08T03:28:56.781Z,18.33
2023-01-08T03:31:27.423Z,18.15
2023-01-08T03:33:55.170Z,16.70
2023-01-08T03:36:25.708Z,17.52
2023-01-08T03:38:58.866Z,16.45
2023-01-08T03:41:27.855Z,16.98
2023-01-08T03:43:54.392Z,17.00
2023-01-08T03:46:28.285Z,17.30
2023-01-08T03:48:56.663Z,16.35
2023-01-08T03:51:23.282Z,18.67
2023-01-08T03:53:53.508Z,16.77
2023-01-08T03:56:20.120Z,17.50
2023-01-08T03:58:47.059Z,17.70
2023-01-08T04:01:13.856Z,16.95
2023-01-08T04:03:40.464Z,16.98
2023-01-08T04:06:07.049Z,16.75
2023-01-08T04:08:33.632Z,16.45
2023-01-08T04:11:00.134Z,16.45
2023-01-08T04:13:26.634Z,17.17
2023-01-08T04:15:53.239Z,17.25
2023-01-08T04:18:19.776Z,16.92
2023-01-08T04:20:47.738Z,16.52
2023-01-08T04:23:14.756Z,15.88
2023-01-08T04:25:41.323Z,15.23
2023-01-08T04:28:07.922Z,15.93
2023-01-08T04:30:34.472Z,16.08
2023-01-08T04:33:01.107Z,16.23
2023-01-08T04:35:27.583Z,15.90
2023-01-08T04:37:54.111Z,16.13
2023-01-08T04:40:20.620Z,14.88
2023-01-08T04:42:47.180Z,14.50
2023-01-08T04:45:13.738Z,15.48
2023-01-08T04:47:40.340Z,15.77
2023-01-08T04:50:07.260Z,16.13
2023-01-08T04:52:34.088Z,16.08
2023-01-08T04:55:00.734Z,15.82
2023-01-08T04:57:27.280Z,15.57
2023-01-08T04:59:53.848Z,15.45
2023-01-08T05:02:20.566Z,14.93
2023-01-08T05:04:48.081Z,15.35
2023-01-08T05:07:14.600Z,14.98
2023-01-08T05:09:41.339Z,15.63
2023-01-08T05:12:07.927Z,15.32
2023-01-08T05:14:34.420Z,15.73
2023-01-08T05:17:01.074Z,14.35
2023-01-08T05:19:27.594Z,15.20
2023-01-08T05:22:01.601Z,15.05
2023-01-08T05:24:28.207Z,15.33
2023-01-08T05:26:54.931Z,14.27
2023-01-08T05:29:21.551Z,13.93
2023-01-08T05:31:48.097Z,14.95
2023-01-08T05:34:14.719Z,14.45
2023-01-08T05:36:41.625Z,14.43
2023-01-08T05:39:08.064Z,15.40
2023-01-08T05:41:34.583Z,15.32
2023-01-08T05:44:01.213Z,14.90
2023-01-08T05:46:27.788Z,15.05
2023-01-08T05:48:54.412Z,14.57
2023-01-08T05:51:20.994Z,15.60
2023-01-08T05:53:47.499Z,15.55
2023-01-08T05:56:14.100Z,14.32
2023-01-08T05:58:40.711Z,14.88
2023-01-08T06:01:13.618Z,14.80
2023-01-08T06:03:40.203Z,14.23
2023-01-08T06:06:07.811Z,14.88
2023-01-08T06:08:35.038Z,13.90
2023-01-08T06:11:03.378Z,14.02
2023-01-08T06:13:30.235Z,13.05
2023-01-08T06:16:00.267Z,13.43
2023-01-08T06:18:28.245Z,14.05
2023-01-08T06:20:55.367Z,13.48
2023-01-08T06:23:21.900Z,13.52
2023-01-08T06:25:55.671Z,13.75
2023-01-08T06:28:23.135Z,14.00
2023-01-08T06:30:50.196Z,13.32
2023-01-08T06:33:16.929Z,14.63
2023-01-08T06:35:43.952Z,14.88
2023-01-08T06:38:10.489Z,14.75
2023-01-08T06:40:37.271Z,14.43
2023-01-08T06:43:05.510Z,13.52
2023-01-08T06:45:32.994Z,14.05
2023-01-08T06:48:07.133Z,13.18
2023-01-08T06:50:34.769Z,14.00
2023-01-08T06:53:01.336Z,12.73
2023-01-08T06:55:28.083Z,12.70
2023-01-08T06:57:55.604Z,14.52
2023-01-08T07:00:23.849Z,14.23
2023-01-08T07:02:52.969Z,14.00
2023-01-08T07:05:19.649Z,13.52
2023-01-08T07:07:46.245Z,14.70
2023-01-08T07:10:13.156Z,13.90
2023-01-08T07:12:39.893Z,14.40
2023-01-08T07:15:07.109Z,13.60
2023-01-08T07:17:34.302Z,14.40
2023-01-08T07:20:00.852Z,13.10
2023-01-08T07:22:28.327Z,13.77
2023-01-08T07:24:55.040Z,18.85
2023-01-08T07:27:21.799Z,19.20
2023-01-08T07:29:48.344Z,13.40
2023-01-08T07:32:14.865Z,12.63
2023-01-08T07:34:41.379Z,13.48
2023-01-08T07:37:07.929Z,13.27
2023-01-08T07:39:34.573Z,12.95
2023-01-08T07:42:01.141Z,12.52
2023-01-08T07:44:27.713Z,12.80
2023-01-08T07:46:54.942Z,12.52
2023-01-08T07:49:21.507Z,12.50
2023-01-08T07:51:51.241Z,12.07
2023-01-08T07:54:18.177Z,12.75
2023-01-08T07:56:44.998Z,10.73
2023-01-08T07:59:11.635Z,12.15
2023-01-08T08:01:38.420Z,12.13
2023-01-08T08:04:05.074Z,12.95
2023-01-08T08:06:31.641Z,12.40
2023-01-08T08:09:00.040Z,11.30
2023-01-08T08:11:26.678Z,11.65
2023-01-08T08:13:55.321Z,12.75
2023-01-08T08:16:24.792Z,12.15
2023-01-08T08:18:52.685Z,11.10
2023-01-08T08:21:19.316Z,11.57
2023-01-08T08:23:45.944Z,11.02
2023-01-08T08:26:12.431Z,12.35
2023-01-08T08:28:38.980Z,14.18
2023-01-08T08:31:05.669Z,17.80
2023-01-08T08:33:32.240Z,12.52
2023-01-08T08:35:58.811Z,12.23
2023-01-08T08:38:26.673Z,11.68
2023-01-08T08:40:53.345Z,12.57
2023-01-08T08:43:19.860Z,12.50
2023-01-08T08:45:46.508Z,12.13
2023-01-08T08:48:13.123Z,11.18
2023-01-08T08:50:39.852Z,12.75
2023-01-08T08:53:06.905Z,11.75
2023-01-08T08:55:34.009Z,11.18
2023-01-08T08:58:13.518Z,12.07
2023-01-08T09:00:41.661Z,12.05
2023-01-08T09:03:15.149Z,11.85
2023-01-08T09:05:43.284Z,10.85
2023-01-08T09:08:10.307Z,11.50
2023-01-08T09:10:38.426Z,11.32
2023-01-08T09:13:04.983Z,11.05
2023-01-08T09:15:31.526Z,11.23
2023-01-08T09:17:58.538Z,11.48
2023-01-08T09:20:26.481Z,11.40
2023-01-08T09:22:53.457Z,11.77
2023-01-08T09:25:20.248Z,11.02
2023-01-08T09:27:48.041Z,10.95
2023-01-08T09:30:14.636Z,11.38
2023-01-08T09:32:41.215Z,11.68
2023-01-08T09:35:08.161Z,11.90
2023-01-08T09:37:34.858Z,12.80
2023-01-08T09:40:02.790Z,11.55
2023-01-08T09:42:31.074Z,11.18
2023-01-08T09:44:59.492Z,12.32
2023-01-08T09:47:38.836Z,12.25
2023-01-08T09:50:12.080Z,11.52
2023-01-08T09:52:39.157Z,11.05
2023-01-08T09:55:16.756Z,11.43
2023-01-08T09:57:44.640Z,11.70
2023-01-08T10:00:19.404Z,11.18
2023-01-08T10:02:46.556Z,10.85
2023-01-08T10:05:16.443Z,10.68
2023-01-08T10:07:43.987Z,11.80
2023-01-08T10:10:23.199Z,12.02
2023-01-08T10:12:50.573Z,11.45
2023-01-08T10:15:19.487Z,10.95
2023-01-08T10:17:52.997Z,10.90
2023-01-08T10:20:24.320Z,10.20
2023-01-08T10:22:54.348Z,11.07
2023-01-08T10:25:24.431Z,11.85
2023-01-08T10:27:52.492Z,11.20
2023-01-08T10:30:34.600Z,11.38
2023-01-08T10:33:07.011Z,10.88
2023-01-08T10:35:37.214Z,10.57
2023-01-08T10:38:04.165Z,10.70
2023-01-08T10:40:38.579Z,11.27
2023-01-08T10:43:20.117Z,10.10
2023-01-08T10:46:00.072Z,10.25
2023-01-08T10:48:45.739Z,11.18
2023-01-08T10:51:21.864Z,10.55
2023-01-08T10:53:48.893Z,12.18
2023-01-08T10:56:23.161Z,14.43
2023-01-08T10:58:50.863Z,19.48
2023-01-08T11:01:23.484Z,21.50
2023-01-08T11:03:52.095Z,15.57
2023-01-08T11:06:29.265Z,15.65
2023-01-08T11:08:59.197Z,11.13
2023-01-08T11:11:37.857Z,11.02
2023-01-08T11:14:15.071Z,11.93
2023-01-08T11:16:42.817Z,10.05
2023-01-08T11:19:23.775Z,10.43
2023-01-08T11:22:01.583Z,10.18
2023-01-08T11:24:34.815Z,9.68
2023-01-08T11:27:07.827Z,11.18
2023-01-08T11:29:48.753Z,9.60
2023-01-08T11:32:15.190Z,10.60
2023-01-08T11:35:01.069Z,10.63
2023-01-08T11:37:33.001Z,9.38
2023-01-08T11:40:00.074Z,10.95
2023-01-08T11:42:52.909Z,10.70
2023-01-08T11:45:22.430Z,10.25
2023-01-08T11:48:03.885Z,10.82
2023-01-08T11:50:49.245Z,9.55
2023-01-08T11:53:15.812Z,11.02
2023-01-08T11:56:19.994Z,11.50
2023-01-08T11:59:08.380Z,10.10
2023-01-08T12:02:09.112Z,15.60
2023-01-08T12:05:20.217Z,10.55
2023-01-08T12:07:49.940Z,10.57
2023-01-08T12:10:33.996Z,9.43
2023-01-08T12:13:12.530Z,9.77
2023-01-08T12:16:16.223Z,10.23
2023-01-08T12:19:19.332Z,9.70
2023-01-08T12:21:58.475Z,9.90
2023-01-08T12:24:51.907Z,10.55
2023-01-08T12:27:55.798Z,10.43
2023-01-08T12:31:00.835Z,10.50
2023-01-08T12:33:38.360Z,9.88
2023-01-08T12:36:28.417Z,11.18
2023-01-08T12:39:07.095Z,11.10
2023-01-08T12:41:36.151Z,10.65
2023-01-08T12:44:11.630Z,10.60
2023-01-08T12:46:42.903Z,10.50
2023-01-08T12:49:16.217Z,10.30
2023-01-08T12:51:54.125Z,10.15
2023-01-08T12:54:29.790Z,9.90
2023-01-08T12:57:12.153Z,10.52
2023-01-08T13:00:08.669Z,10.30
2023-01-08T13:03:02.203Z,11.05
2023-01-08T13:05:28.660Z,10.80
2023-01-08T13:08:03.000Z,11.70
2023-01-08T13:10:41.645Z,10.60
2023-01-08T13:13:28.127Z,10.85
2023-01-08T13:16:26.070Z,10.60
2023-01-08T13:19:01.896Z,14.65
2023-01-08T13:21:32.883Z,11.98
2023-01-08T13:24:09.744Z,11.82
2023-01-08T13:26:36.926Z,11.68
2023-01-08T13:29:22.725Z,11.30
2023-01-08T13:31:49.404Z,11.50
2023-01-08T13:34:35.886Z,11.18
2023-01-08T13:37:02.484Z,11.93
2023-01-08T13:39:37.453Z,10.73
2023-01-08T13:44:50.280Z,12.15
2023-01-08T13:47:37.435Z,17.38
2023-01-08T13:50:15.486Z,13.10
2023-01-08T13:53:14.125Z,12.15
2023-01-08T13:55:47.274Z,13.00
2023-01-08T13:58:24.290Z,12.82
2023-01-08T14:00:54.983Z,11.50
2023-01-08T14:03:37.394Z,12.65
2023-01-08T14:06:07.218Z,12.77
2023-01-08T14:08:34.174Z,12.82
2023-01-08T14:11:00.892Z,13.77
2023-01-08T14:13:30.878Z,13.02
2023-01-08T14:16:02.373Z,12.23
2023-01-08T14:18:29.259Z,12.90
2023-01-08T14:20:56.214Z,14.07
2023-01-08T14:23:36.107Z,13.13
2023-01-08T14:26:08.661Z,12.60
2023-01-08T14:28:35.473Z,12.50
2023-01-08T14:31:02.140Z,12.40
2023-01-08T14:33:37.057Z,12.65
2023-01-08T14:38:34.590Z,13.02
2023-01-08T14:41:05.211Z,11.70
2023-01-08T14:43:41.890Z,13.70
2023-01-08T14:46:28.841Z,12.57
2023-01-08T14:48:56.634Z,13.05
2023-01-08T14:51:26.290Z,12.07
2023-01-08T14:54:01.294Z,12.68
2023-01-08T14:56:32.128Z,13.35
2023-01-08T14:58:59.966Z,11.75
2023-01-08T15:01:29.634Z,11.13
2023-01-08T15:04:20.329Z,12.35
2023-01-08T15:06:49.506Z,13.88
2023-01-08T15:09:24.185Z,11.88
2023-01-08T15:11:55.959Z,16.95
2023-01-08T15:14:24.734Z,14.18
2023-01-08T15:16:55.249Z,13.40
2023-01-08T15:19:31.300Z,13.48
2023-01-08T15:22:01.946Z,11.68
2023-01-08T15:24:34.357Z,13.43
2023-01-08T15:27:10.561Z,12.98
2023-01-08T15:29:47.647Z,14.13
2023-01-08T15:32:14.118Z,14.85
2023-01-08T15:34:41.764Z,14.18
2023-01-08T15:37:08.386Z,13.68
2023-01-08T15:39:34.885Z,14.20
2023-01-08T15:42:31.545Z,13.70
2023-01-08T15:44:58.097Z,15.45
2023-01-08T15:47:24.645Z,14.48
2023-01-08T15:49:52.033Z,13.45
2023-01-08T15:52:25.143Z,13.10
2023-01-08T15:54:51.880Z,13.65
2023-01-08T15:57:21.832Z,13.90
2023-01-08T15:59:50.865Z,13.15
2023-01-08T16:02:17.751Z,13.18
2023-01-08T16:04:44.860Z,14.18
2023-01-08T16:07:11.710Z,14.45
2023-01-08T16:09:38.215Z,13.13
2023-01-08T16:12:06.173Z,12.95
2023-01-08T16:14:34.533Z,13.98
2023-01-08T16:17:01.592Z,13.25
2023-01-08T16:19:29.841Z,12.45
2023-01-08T16:21:59.798Z,12.25
2023-01-08T16:24:29.236Z,12.25
2023-01-08T16:26:55.984Z,11.68
2023-01-08T16:29:22.623Z,12.75
2023-01-08T16:31:49.343Z,13.70
2023-01-08T16:34:16.415Z,12.07
2023-01-08T16:36:43.096Z,13.25
2023-01-08T16:39:10.676Z,12.23
2023-01-08T16:41:38.780Z,13.15
2023-01-08T16:44:05.508Z,12.73
2023-01-08T16:46:32.627Z,12.20
2023-01-08T16:48:59.197Z,12.95
2023-01-08T16:51:27.912Z,13.15
2023-01-08T16:53:54.643Z,13.63
2023-01-08T16:56:21.278Z,14.20
2023-01-08T16:58:50.534Z,13.85
2023-01-08T17:01:17.339Z,15.30
2023-01-08T17:03:44.033Z,13.80
2023-01-08T17:06:14.292Z,13.77
2023-01-08T17:08:42.408Z,13.05
2023-01-08T17:11:17.969Z,15.98
2023-01-08T17:13:45.016Z,14.20
2023-01-08T17:16:13.625Z,13.02
2023-01-08T17:18:42.108Z,14.27
2023-01-08T17:21:09.838Z,14.93
2023-01-08T17:23:36.467Z,13.02
2023-01-08T17:26:08.315Z,13.57
2023-01-08T17:28:35.571Z,13.63
2023-01-08T17:31:14.275Z,14.32
2023-01-08T17:33:41.743Z,14.40
2023-01-08T17:36:14.014Z,13.20
2023-01-08T17:38:41.342Z,12.73
2023-01-08T17:41:11.154Z,12.32
2023-01-08T17:43:38.692Z,14.05
2023-01-08T17:46:06.995Z,13.98
2023-01-08T17:48:35.186Z,13.75
2023-01-08T17:51:09.362Z,17.52
2023-01-08T17:53:36.209Z,14.10
2023-01-08T17:56:05.806Z,12.63
2023-01-08T17:58:32.560Z,13.00
2023-01-08T18:00:59.211Z,15.13
2023-01-08T18:03:25.809Z,13.52
2023-01-08T18:05:52.354Z,13.32
2023-01-08T18:08:19.072Z,13.20
2023-01-08T18:10:45.620Z,15.30
2023-01-08T18:13:12.375Z,14.02
2023-01-08T18:15:38.992Z,15.05
2023-01-08T18:18:05.637Z,14.48
2023-01-08T18:20:37.256Z,14.63
2023-01-08T18:23:03.900Z,13.68
2023-01-08T18:25:30.690Z,14.38
2023-01-08T18:27:57.240Z,14.70
2023-01-08T18:30:23.839Z,15.00
2023-01-08T18:32:50.433Z,18.52
2023-01-08T18:35:18.484Z,17.85
2023-01-08T18:37:45.044Z,15.65
2023-01-08T18:40:11.883Z,15.90
2023-01-08T18:42:38.397Z,16.75
2023-01-08T18:45:05.303Z,16.83
2023-01-08T18:47:31.899Z,16.65
2023-01-08T18:50:03.314Z,17.45
2023-01-08T18:52:30.729Z,17.88
2023-01-08T18:54:57.830Z,17.08
2023-01-08T18:57:24.372Z,17.13
2023-01-08T18:59:50.965Z,16.55
2023-01-08T19:02:21.712Z,15.90
2023-01-08T19:04:49.054Z,16.10
2023-01-08T19:07:17.080Z,15.80
2023-01-08T19:09:43.840Z,16.17
2023-01-08T19:12:10.799Z,16.48
2023-01-08T19:14:38.053Z,15.70
2023-01-08T19:17:04.759Z,16.20
2023-01-08T19:19:31.375Z,17.13
2023-01-08T19:21:57.909Z,16.30
2023-01-08T19:24:24.468Z,16.17
2023-01-08T19:26:51.587Z,20.90
2023-01-08T19:29:18.424Z,20.13
2023-01-08T19:31:47.772Z,19.50
2023-01-08T19:34:14.391Z,22.45
2023-01-08T19:36:43.668Z,24.40
2023-01-08T19:39:11.390Z,23.92
2023-01-08T19:41:57.851Z,21.60
2023-01-08T19:44:24.781Z,22.45
2023-01-08T19:46:51.379Z,21.25
2023-01-08T19:49:18.098Z,23.38
2023-01-08T19:51:44.626Z,22.08
2023-01-08T19:54:12.034Z,20.75
2023-01-08T19:56:38.593Z,21.48
2023-01-08T19:59:05.165Z,21.55
2023-01-08T20:01:33.684Z,20.17
2023-01-08T20:04:00.328Z,21.50
2023-01-08T20:06:28.268Z,21.17
2023-01-08T20:08:58.655Z,21.45
2023-01-08T20:11:28.520Z,21.65
2023-01-08T20:13:56.314Z,20.65
2023-01-08T20:16:25.536Z,21.42
2023-01-08T20:18:55.736Z,20.92
2023-01-08T20:21:23.181Z,21.50
2023-01-08T20:24:15.409Z,22.05
2023-01-08T20:26:46.749Z,22.13
2023-01-08T20:29:16.121Z,22.45
2023-01-08T20:31:44.217Z,21.27
2023-01-08T20:34:17.217Z,20.80
2023-01-08T20:36:46.700Z,21.33
2023-01-08T20:39:15.491Z,21.55
2023-01-08T20:41:50.088Z,21.70
2023-01-08T20:44:30.519Z,21.60
2023-01-08T20:46:57.120Z,21.90
2023-01-08T20:49:29.899Z,22.02
2023-01-08T20:51:59.553Z,22.23
2023-01-08T20:54:27.516Z,22.23
2023-01-08T20:56:58.014Z,22.58
2023-01-08T20:59:25.379Z,21.70
2023-01-08T21:01:52.667Z,21.13
2023-01-08T21:04:19.745Z,21.15
2023-01-08T21:06:46.399Z,21.45
2023-01-08T21:09:14.110Z,22.95
2023-01-08T21:11:41.309Z,21.50
2023-01-08T21:14:08.758Z,22.27
2023-01-08T21:16:36.954Z,22.30
2023-01-08T21:19:04.038Z,23.02
2023-01-08T21:21:33.983Z,23.25
2023-01-08T21:24:04.537Z,21.55
2023-01-08T21:26:34.024Z,22.85
2023-01-08T21:29:03.165Z,22.63
2023-01-08T21:31:30.202Z,21.58
2023-01-08T21:33:58.163Z,23.10
2023-01-08T21:36:27.143Z,22.08
2023-01-08T21:38:56.763Z,23.23
2023-01-08T21:41:44.612Z,21.23
2023-01-08T21:44:32.726Z,21.05
2023-01-08T21:47:00.929Z,20.80
2023-01-08T21:49:27.958Z,21.70
2023-01-08T21:52:14.181Z,21.63
2023-01-08T21:54:40.793Z,21.88
2023-01-08T21:57:08.801Z,21.63
2023-01-08T21:59:36.000Z,21.95
2023-01-08T22:02:03.521Z,23.63
2023-01-08T22:04:30.511Z,21.08
2023-01-08T22:06:57.118Z,22.30
2023-01-08T22:09:23.653Z,22.23
2023-01-08T22:11:50.266Z,20.42
2023-01-08T22:14:17.296Z,21.60
2023-01-08T22:16:44.036Z,20.65
2023-01-08T22:19:10.609Z,21.25
2023-01-08T22:21:37.301Z,21.05
2023-01-08T22:24:04.000Z,21.38
2023-01-08T22:26:30.630Z,21.58
2023-01-08T22:28:57.161Z,21.08
2023-01-08T22:31:23.853Z,21.13
2023-01-08T22:33:54.344Z,22.33
2023-01-08T22:36:21.186Z,20.48
2023-01-08T22:38:47.739Z,21.02
2023-01-08T22:41:16.663Z,21.55
2023-01-08T22:43:51.022Z,21.98
2023-01-08T22:46:17.617Z,21.58
2023-01-08T22:48:44.451Z,22.65
2023-01-08T22:51:11.439Z,23.25
2023-01-08T22:53:38.013Z,21.90
2023-01-08T22:56:12.272Z,22.90
2023-01-08T22:58:40.785Z,21.85
2023-01-08T23:01:15.558Z,20.73
2023-01-08T23:03:45.440Z,21.40
2023-01-08T23:06:13.626Z,21.20
2023-01-08T23:08:41.782Z,22.55
2023-01-08T23:11:10.864Z,22.25
2023-01-08T23:13:38.321Z,22.90
2023-01-08T23:16:06.745Z,23.55
2023-01-08T23:18:33.800Z,22.08
2023-01-08T23:21:08.757Z,22.48
2023-01-08T23:26:11.448Z,23.40
2023-01-08T23:28:39.045Z,23.45
2023-01-08T23:31:10.336Z,23.73
2023-01-08T23:33:37.115Z,23.05
2023-01-08T23:36:04.168Z,22.67
2023-01-08T23:38:30.690Z,22.83
2023-01-08T23:40:57.823Z,23.45
2023-01-08T23:43:24.457Z,22.42
2023-01-08T23:45:51.448Z,23.52
2023-01-08T23:48:18.026Z,23.67
2023-01-08T23:50:44.763Z,22.13
2023-01-08T23:53:11.412Z,21.17
2023-01-08T23:55:38.021Z,22.95
2023-01-08T23:58:04.615Z,22.83
